Time;durP1;ratioP1;P1;durP2;ratioP2;P2;SDS_P1;SDS_P2;PMS_P1;PMS_P2;Temp;Humidity;BMP_temperature;BMP_pressure;BME280_temperature;BME280_humidity;BME280_pressure;Samples;Min_cycle;Max_cycle;Signal;HPM_P1;HPM_P2
2021/01/21 00:00:28;;;;;;;41.33;22.55;;;;;;;-4.44;73.37;99700.06;1792329;79;21436;-62
2021/01/21 00:02:57;;;;;;;33.83;21.12;;;;;;;-4.39;73.37;99700.13;1799076;79;21529;-62
2021/01/21 00:05:26;;;;;;;37.78;20.80;;;;;;;-4.42;73.31;99691.21;1799084;79;21139;-63
2021/01/21 00:07:54;;;;;;;37.17;21.17;;;;;;;-4.46;73.55;99685.61;1799096;79;21068;-64
2021/01/21 00:10:22;;;;;;;45.50;23.27;;;;;;;-4.52;73.67;99692.67;1799079;79;21529;-62
2021/01/21 00:12:51;;;;;;;40.17;22.25;;;;;;;-4.53;74.02;99695.63;1799174;79;22545;-62
2021/01/21 00:15:19;;;;;;;41.05;22.60;;;;;;;-4.46;74.08;99697.03;1765887;81;21082;-62
2021/01/21 00:17:47;;;;;;;40.05;22.70;;;;;;;-4.39;74.12;99700.99;1799074;79;21115;-62
2021/01/21 00:20:15;;;;;;;34.73;20.37;;;;;;;-4.38;74.03;99695.50;1765869;81;21150;-63
2021/01/21 00:22:44;;;;;;;37.00;21.57;;;;;;;-4.39;74.00;99680.68;1799089;79;21151;-63
2021/01/21 00:25:12;;;;;;;38.85;22.00;;;;;;;-4.42;74.24;99669.62;1799123;79;21498;-63
2021/01/21 00:27:40;;;;;;;41.15;21.42;;;;;;;-4.39;74.27;99677.28;1799040;79;21072;-61
2021/01/21 00:30:10;;;;;;;37.67;22.02;;;;;;;-4.37;74.34;99673.10;1765922;81;21059;-63
2021/01/21 00:32:37;;;;;;;36.50;20.43;;;;;;;-4.35;74.30;99673.99;1799049;79;21064;-63
2021/01/21 00:35:07;;;;;;;34.80;21.17;;;;;;;-4.37;74.33;99680.30;1799120;79;21564;-63
2021/01/21 00:37:36;;;;;;;37.40;21.48;;;;;;;-4.41;74.53;99682.36;1765915;81;21481;-63
2021/01/21 00:40:05;;;;;;;34.50;21.50;;;;;;;-4.38;74.61;99693.83;1799047;79;21191;-63
2021/01/21 00:42:33;;;;;;;37.20;22.00;;;;;;;-4.33;74.59;99691.39;1799188;79;21139;-63
2021/01/21 00:45:00;;;;;;;35.60;21.25;;;;;;;-4.31;74.63;99693.55;1765847;81;21071;-63
2021/01/21 00:47:28;;;;;;;35.55;20.23;;;;;;;-4.30;74.64;99694.86;1760951;81;21071;-63
2021/01/21 00:49:56;;;;;;;33.88;19.65;;;;;;;-4.24;74.73;99691.19;1761595;81;21388;-63
2021/01/21 00:52:24;;;;;;;39.18;21.42;;;;;;;-4.23;74.65;99684.02;1761614;81;21130;-63
2021/01/21 00:54:52;;;;;;;35.58;20.35;;;;;;;-4.20;74.64;99683.23;1736033;81;21079;-62
2021/01/21 00:57:20;;;;;;;36.95;22.58;;;;;;;-4.18;74.64;99680.28;1735802;81;21109;-62
2021/01/21 00:59:47;;;;;;;33.90;20.75;;;;;;;-4.13;74.66;99677.42;1761531;81;21171;-62
2021/01/21 01:02:15;;;;;;;35.38;21.27;;;;;;;-4.07;74.65;99680.09;1758988;81;23618;-62
2021/01/21 01:04:43;;;;;;;36.73;20.75;;;;;;;-4.02;74.38;99691.22;1730737;81;21182;-63
2021/01/21 01:07:11;;;;;;;38.33;22.17;;;;;;;-4.04;74.38;99684.39;1758577;81;21067;-62
2021/01/21 01:09:38;;;;;;;35.85;20.25;;;;;;;-4.05;74.46;99669.56;1758567;81;22063;-62
2021/01/21 01:12:08;;;;;;;36.42;21.20;;;;;;;-4.00;74.52;99674.33;1758570;81;21155;-62
2021/01/21 01:14:38;;;;;;;37.00;20.70;;;;;;;-3.91;74.51;99677.44;1758836;81;21376;-62
2021/01/21 01:17:06;;;;;;;38.63;21.42;;;;;;;-3.87;74.16;99672.45;1758540;81;21138;-63
2021/01/21 01:19:37;;;;;;;35.08;20.08;;;;;;;-3.88;74.18;99665.66;1757861;81;21137;-62
2021/01/21 01:22:05;;;;;;;33.53;19.98;;;;;;;-3.86;74.17;99666.55;1758583;81;21550;-63
2021/01/21 01:24:34;;;;;;;34.48;20.05;;;;;;;-3.84;74.04;99669.12;1730837;81;21683;-62
2021/01/21 01:27:01;;;;;;;38.05;20.37;;;;;;;-3.84;74.00;99678.88;1758599;81;21134;-63
2021/01/21 01:29:30;;;;;;;37.45;20.43;;;;;;;-3.83;74.06;99660.67;1758538;81;21520;-62
2021/01/21 01:31:57;;;;;;;33.08;18.95;;;;;;;-3.83;74.10;99651.78;1758591;81;21556;-63
2021/01/21 01:34:27;;;;;;;30.05;17.62;;;;;;;-3.80;74.09;99653.52;1758083;81;21174;-63
2021/01/21 01:37:08;;;;;;;34.90;19.05;;;;;;;-3.78;73.83;99653.11;1758134;81;21070;-62
2021/01/21 01:39:37;;;;;;;35.38;20.43;;;;;;;-3.91;73.87;99657.11;1757968;81;21495;-62
2021/01/21 01:42:15;;;;;;;34.40;19.98;;;;;;;-3.95;74.30;99644.77;1873610;75;22686;-62
2021/01/21 01:44:45;;;;;;;33.60;20.15;;;;;;;-4.01;74.36;99649.75;1841612;78;21057;-63
2021/01/21 01:47:12;;;;;;;32.38;19.67;;;;;;;-4.00;74.51;99651.46;1841576;78;21407;-63
2021/01/21 01:49:41;;;;;;;33.67;18.82;;;;;;;-4.03;74.55;99648.86;1811324;78;21288;-63
2021/01/21 01:52:08;;;;;;;35.03;20.65;;;;;;;-4.07;74.79;99650.03;1823026;78;21132;-64
2021/01/21 01:54:41;;;;;;;34.90;18.73;;;;;;;-4.09;74.88;99643.64;1808639;79;21163;-63
2021/01/21 01:57:25;;;;;;;32.00;19.30;;;;;;;-4.07;75.09;99641.14;1807052;79;21466;-62
2021/01/21 01:59:57;;;;;;;33.53;19.60;;;;;;;-4.06;75.19;99637.77;1808482;78;22356;-63
2021/01/21 02:02:25;;;;;;;35.52;19.95;;;;;;;-4.06;75.21;99647.52;1808521;78;20899;-63
2021/01/21 02:04:54;;;;;;;36.08;20.40;;;;;;;-4.00;75.28;99642.98;1808549;79;21073;-63
2021/01/21 02:07:28;;;;;;;;;;;;;;;-3.98;75.24;99645.97;1810483;78;21637;-62
2021/01/21 02:10:02;;;;;;;36.93;19.87;;;;;;;-3.94;75.12;99638.85;1807879;78;20488;-62
2021/01/21 02:12:54;;;;;;;37.15;20.60;;;;;;;-3.95;75.22;99632.06;1807813;78;21338;-63
2021/01/21 02:15:46;;;;;;;34.30;20.65;;;;;;;-3.87;75.29;99628.41;1808549;79;21076;-62
2021/01/21 02:18:38;;;;;;;31.50;19.10;;;;;;;-3.82;75.11;99621.73;1808795;79;21054;-63
2021/01/21 02:21:42;;;;;;;37.00;20.00;;;;;;;-3.81;75.00;99618.36;1808559;79;21081;-62
2021/01/21 02:24:41;;;;;;;35.35;20.88;;;;;;;-3.86;75.24;99614.88;1808508;79;21116;-62
2021/01/21 02:27:09;;;;;;;34.45;19.25;;;;;;;-3.84;75.39;99600.09;1807781;78;21565;-63
2021/01/21 02:29:41;;;;;;;33.95;20.65;;;;;;;-3.80;75.24;99601.43;1779684;79;21172;-63
2021/01/21 02:32:20;;;;;;;35.43;19.52;;;;;;;-3.84;75.22;99611.53;1808517;78;21002;-63
2021/01/21 02:34:59;;;;;;;29.52;18.75;;;;;;;-3.87;75.30;99615.28;1795676;79;21105;-63
2021/01/21 02:37:29;;;;;;;37.20;20.55;;;;;;;-3.94;75.43;99620.21;1808527;78;21164;-63
2021/01/21 02:40:06;;;;;;;31.07;18.70;;;;;;;-3.95;75.66;99628.66;1808559;79;21385;-64
2021/01/21 02:42:47;;;;;;;36.10;19.77;;;;;;;-3.89;75.91;99628.78;1779305;79;21554;-63
2021/01/21 02:45:20;;;;;;;31.23;17.98;;;;;;;-3.79;75.80;99621.76;1808479;79;20994;-61
2021/01/21 02:47:49;;;;;;;32.85;20.48;;;;;;;-3.71;75.60;99617.68;1806520;79;21127;-62
2021/01/21 02:50:19;;;;;;;29.95;17.65;;;;;;;-3.65;75.54;99614.41;1808510;79;21474;-63
2021/01/21 02:52:52;;;;;;;32.25;19.37;;;;;;;-3.60;75.37;99615.34;1808032;78;21363;-63
2021/01/21 02:55:32;;;;;;;31.57;19.02;;;;;;;-3.62;75.31;99610.64;1807880;79;21132;-63
2021/01/21 02:58:07;;;;;;;34.88;19.98;;;;;;;-3.63;75.28;99618.69;1807659;79;21080;-63
2021/01/21 03:00:35;;;;;;;35.20;19.92;;;;;;;-3.65;75.28;99628.37;1778762;79;26958;-63
2021/01/21 03:03:05;;;;;;;35.17;20.35;;;;;;;-3.63;75.41;99635.63;1779276;79;21494;-62
2021/01/21 03:05:33;;;;;;;33.40;19.32;;;;;;;-3.58;75.31;99639.08;1779808;79;22355;-63
2021/01/21 03:08:01;;;;;;;34.38;20.52;;;;;;;-3.52;75.27;99637.51;1807828;79;21018;-62
2021/01/21 03:10:28;;;;;;;34.70;19.32;;;;;;;-3.45;75.26;99637.21;1807849;79;21144;-62
2021/01/21 03:12:58;;;;;;;32.05;19.05;;;;;;;-3.38;75.10;99630.52;1807889;79;21061;-63
2021/01/21 03:15:29;;;;;;;27.93;18.27;;;;;;;-3.38;74.66;99632.65;1806787;78;21090;-62
2021/01/21 03:18:01;;;;;;;32.83;19.05;;;;;;;-3.45;74.68;99637.63;1806029;79;21291;-63
2021/01/21 03:20:30;;;;;;;33.65;20.17;;;;;;;-3.50;74.90;99632.04;1807879;79;21133;-62
2021/01/21 03:22:58;;;;;;;35.70;20.05;;;;;;;-3.54;74.92;99634.08;1807865;78;21566;-63
2021/01/21 03:25:26;;;;;;;34.18;20.30;;;;;;;-3.50;75.03;99638.81;1807824;78;21085;-63
2021/01/21 03:27:56;;;;;;;34.10;19.57;;;;;;;-3.49;75.01;99636.30;1806786;79;21065;-63
2021/01/21 03:30:25;;;;;;;32.38;19.95;;;;;;;-3.41;75.00;99634.31;1807662;79;21365;-63
2021/01/21 03:32:53;;;;;;;31.50;20.05;;;;;;;-3.34;74.94;99629.75;1807828;79;21073;-63
2021/01/21 03:35:22;;;;;;;34.83;19.95;;;;;;;-3.27;74.78;99639.20;1807869;79;21046;-63
2021/01/21 03:37:50;;;;;;;36.28;20.48;;;;;;;-3.23;74.59;99642.24;1807847;78;21549;-63
2021/01/21 03:40:19;;;;;;;38.33;19.42;;;;;;;-3.23;74.53;99634.20;1807851;79;21093;-62
2021/01/21 03:42:48;;;;;;;32.53;18.87;;;;;;;-3.20;74.44;99644.84;1813120;78;21331;-63
2021/01/21 03:45:23;;;;;;;34.50;19.52;;;;;;;-3.21;74.50;99639.31;1810619;79;21073;-62
2021/01/21 03:47:52;;;;;;;32.38;18.45;;;;;;;-3.23;74.29;99643.09;1786542;79;21490;-62
2021/01/21 03:50:21;;;;;;;34.35;20.37;;;;;;;-3.33;74.35;99643.77;1813500;78;21589;-63
2021/01/21 03:52:50;;;;;;;33.00;20.17;;;;;;;-3.39;74.51;99638.98;1813541;77;21569;-64
2021/01/21 03:55:20;;;;;;;37.48;21.35;;;;;;;-3.41;74.78;99636.85;1813279;79;21373;-62
2021/01/21 03:57:50;;;;;;;34.08;20.75;;;;;;;-3.39;74.86;99637.30;1811897;79;21140;-62
2021/01/21 04:00:20;;;;;;;33.35;20.72;;;;;;;-3.35;74.81;99639.48;1812163;79;21112;-63
2021/01/21 04:02:49;;;;;;;38.42;21.12;;;;;;;-3.36;74.90;99634.80;1813551;78;21097;-63
2021/01/21 04:05:35;;;;;;;34.00;20.20;;;;;;;-3.31;74.92;99639.97;1811657;79;21060;-63
2021/01/21 04:08:04;;;;;;;35.28;20.45;;;;;;;-3.28;74.82;99637.08;1786889;79;22098;-63
2021/01/21 04:10:34;;;;;;;37.60;21.42;;;;;;;-3.31;74.76;99639.97;1812939;78;21077;-63
2021/01/21 04:13:06;;;;;;;34.18;20.82;;;;;;;-3.31;74.87;99643.37;1803266;79;21049;-63
2021/01/21 04:15:34;;;;;;;40.30;22.02;;;;;;;-3.30;74.92;99648.91;1786661;79;22589;-61
2021/01/21 04:18:04;;;;;;;34.03;19.87;;;;;;;-3.27;74.83;99642.60;1813656;79;21470;-62
2021/01/21 04:20:34;;;;;;;32.67;19.17;;;;;;;-3.27;74.91;99635.39;1810400;78;21262;-63
2021/01/21 04:23:02;;;;;;;39.30;22.02;;;;;;;-3.25;74.88;99635.86;1813538;79;21077;-62
2021/01/21 04:25:30;;;;;;;37.78;20.80;;;;;;;-3.26;74.88;99630.33;1813628;78;21112;-62
2021/01/21 04:28:00;;;;;;;36.15;20.82;;;;;;;-3.24;74.74;99633.75;1813488;78;21144;-62
2021/01/21 04:30:28;;;;;;;39.00;21.77;;;;;;;-3.28;74.73;99634.95;1813550;79;21608;-63
2021/01/21 04:32:56;;;;;;;41.02;22.00;;;;;;;-3.29;74.93;99637.91;1813565;79;21371;-63
2021/01/21 04:35:24;;;;;;;38.40;22.37;;;;;;;-3.30;74.96;99636.60;1813449;79;21070;-63
2021/01/21 04:37:54;;;;;;;38.63;21.52;;;;;;;-3.27;75.07;99636.66;1813524;79;21077;-63
2021/01/21 04:40:27;;;;;;;38.17;21.00;;;;;;;-3.23;75.15;99630.38;1812914;78;21832;-63
2021/01/21 04:42:59;;;;;;;43.45;22.30;;;;;;;-3.17;75.11;99634.69;1795064;79;21061;-62
2021/01/21 04:45:27;;;;;;;36.53;21.40;;;;;;;-3.14;75.01;99634.73;1797396;79;21486;-63
2021/01/21 04:47:54;;;;;;;43.35;23.57;;;;;;;-3.13;74.91;99632.64;1797319;79;21084;-63
2021/01/21 04:50:27;;;;;;;43.92;23.38;;;;;;;-3.17;75.02;99631.73;1782578;79;21080;-63
2021/01/21 04:53:16;;;;;;;41.73;23.25;;;;;;;-3.12;75.10;99636.90;1796715;79;21101;-63
2021/01/21 04:55:47;;;;;;;48.60;24.57;;;;;;;-3.06;75.02;99641.23;1792135;79;21084;-63
2021/01/21 04:58:38;;;;;;;37.90;22.48;;;;;;;-3.12;74.91;99644.53;1784152;79;21292;-63
2021/01/21 05:01:06;;;;;;;38.10;21.27;;;;;;;-3.14;75.13;99635.59;1797358;79;21065;-63
2021/01/21 05:03:34;;;;;;;37.95;21.75;;;;;;;-3.17;75.08;99638.50;1797308;79;21136;-62
2021/01/21 05:06:19;;;;;;;35.55;20.97;;;;;;;-3.25;75.24;99637.55;1692014;84;21150;-62
2021/01/21 05:08:48;;;;;;;39.27;21.30;;;;;;;-3.35;75.49;99633.97;1764353;79;21155;-61
2021/01/21 05:11:17;;;;;;;39.53;21.77;;;;;;;-3.38;75.85;99631.38;1797049;79;21287;-63
2021/01/21 05:13:55;;;;;;;36.95;21.57;;;;;;;-3.34;75.96;99636.10;1759566;79;21166;-63
2021/01/21 05:16:43;;;;;;;37.83;20.45;;;;;;;-3.34;76.05;99638.65;1797318;79;21557;-63
2021/01/21 05:19:25;;;;;;;42.00;22.37;;;;;;;-3.40;76.12;99635.61;1747184;79;21057;-62
2021/01/21 05:22:20;;;;;;;43.73;23.40;;;;;;;-3.44;76.51;99637.66;1873591;75;22886;-63
2021/01/21 05:24:52;;;;;;;41.18;23.83;;;;;;;-3.49;76.82;99633.75;1838365;78;21140;-63
2021/01/21 05:27:24;;;;;;;36.25;20.37;;;;;;;-3.42;76.81;99637.69;1778791;78;21182;-63
2021/01/21 05:30:02;;;;;;;42.90;22.70;;;;;;;-3.36;77.02;99644.13;1840876;78;21060;-63
2021/01/21 05:32:32;;;;;;;38.42;20.75;;;;;;;-3.28;77.02;99639.61;1812256;77;21542;-63
2021/01/21 05:35:04;;;;;;;40.45;22.13;;;;;;;-3.17;76.89;99650.80;1774357;78;21113;-63
2021/01/21 05:37:39;;;;;;;39.78;22.73;;;;;;;-3.13;76.67;99650.03;1811685;78;21569;-63
2021/01/21 05:40:24;;;;;;;37.20;22.17;;;;;;;-3.09;76.82;99647.12;1734606;82;21184;-62
2021/01/21 05:43:15;;;;;;;43.33;22.87;;;;;;;-3.05;76.65;99641.67;1752272;81;21578;-62
2021/01/21 05:45:57;;;;;;;52.03;27.73;;;;;;;-3.03;76.67;99648.50;1755135;80;20943;-63
2021/01/21 05:48:25;;;;;;;51.40;27.82;;;;;;;-3.05;76.58;99644.22;1782149;80;21106;-62
2021/01/21 05:50:53;;;;;;;68.75;35.95;;;;;;;-3.10;76.61;99653.05;1781881;80;21113;-64
2021/01/21 05:53:20;;;;;;;52.13;29.37;;;;;;;-3.13;76.78;99652.99;1722349;82;21364;-63
2021/01/21 05:55:50;;;;;;;41.50;24.55;;;;;;;-3.11;76.93;99655.15;1751001;81;21535;-62
2021/01/21 05:58:19;;;;;;;40.85;24.18;;;;;;;-3.05;77.01;99659.07;1751385;82;21526;-62
2021/01/21 06:00:47;;;;;;;36.05;21.15;;;;;;;-3.03;76.89;99658.69;1751106;82;21086;-62
2021/01/21 06:03:35;;;;;;;38.05;21.87;;;;;;;-3.01;76.97;99649.39;1845315;76;22540;-62
2021/01/21 06:06:28;;;;;;;38.48;21.00;;;;;;;-3.02;77.10;99655.72;1814507;77;21035;-62
2021/01/21 06:08:57;;;;;;;35.48;20.35;;;;;;;-2.99;76.98;99653.20;1655555;85;21406;-63
2021/01/21 06:11:25;;;;;;;36.50;22.17;;;;;;;-2.98;77.18;99643.05;1628625;85;21126;-62
2021/01/21 06:13:52;;;;;;;38.23;21.65;;;;;;;-2.93;77.02;99649.48;1679265;85;21047;-63
2021/01/21 06:16:20;;;;;;;35.83;21.48;;;;;;;-2.88;77.02;99652.97;1679213;85;21291;-63
2021/01/21 06:18:48;;;;;;;37.08;22.00;;;;;;;-2.84;76.98;99659.41;1679339;85;21528;-63
2021/01/21 06:21:19;;;;;;;38.30;23.25;;;;;;;-2.78;76.95;99658.61;1678165;84;21452;-62
2021/01/21 06:24:04;;;;;;;38.15;21.15;;;;;;;-2.71;76.81;99658.30;1678518;85;21165;-61
2021/01/21 06:26:47;;;;;;;38.23;22.00;;;;;;;-2.61;76.75;99645.74;1678700;85;21189;-61
2021/01/21 06:29:18;;;;;;;38.95;21.25;;;;;;;-2.59;76.46;99648.28;1678841;84;21752;-62
2021/01/21 06:31:49;;;;;;;39.83;21.77;;;;;;;-2.59;76.36;99649.55;1678794;84;21070;-62
2021/01/21 06:34:22;;;;;;;37.85;21.35;;;;;;;-2.58;76.42;99647.45;1679586;85;22156;-64
2021/01/21 06:36:53;;;;;;;35.38;21.00;;;;;;;-2.53;76.46;99643.28;1679398;85;21177;-63
2021/01/21 06:39:35;;;;;;;36.50;21.68;;;;;;;-2.43;76.41;99645.13;1650324;85;21217;-61
2021/01/21 06:42:04;;;;;;;36.87;23.37;;;;;;;-2.33;76.10;99640.58;1679240;85;21605;-61
2021/01/21 06:44:32;;;;;;;35.03;21.37;;;;;;;-2.28;75.89;99649.14;1679200;85;21149;-61
2021/01/21 06:47:01;;;;;;;41.68;22.25;;;;;;;-2.25;75.73;99650.87;1679377;85;22293;-61
2021/01/21 06:49:29;;;;;;;40.28;23.27;;;;;;;-2.26;75.49;99648.75;1679165;85;21114;-63
2021/01/21 06:51:57;;;;;;;36.20;21.15;;;;;;;-2.26;75.66;99651.30;1678482;84;21103;-64
2021/01/21 06:54:25;;;;;;;41.75;24.52;;;;;;;-2.18;75.56;99653.92;1648916;85;21519;-63
2021/01/21 06:56:52;;;;;;;39.80;22.42;;;;;;;-2.10;75.46;99654.46;1677747;85;21273;-63
2021/01/21 06:59:42;;;;;;;37.88;22.07;;;;;;;-2.02;75.26;99655.84;1677704;85;21482;-63
2021/01/21 07:02:10;;;;;;;38.90;22.73;;;;;;;-1.94;75.17;99663.14;1677484;85;21234;-62
2021/01/21 07:04:38;;;;;;;52.33;27.67;;;;;;;-1.91;74.82;99664.45;1677521;85;21091;-63
2021/01/21 07:07:12;;;;;;;55.43;32.38;;;;;;;-1.91;74.88;99663.18;1677623;83;21213;-64
2021/01/21 07:09:41;;;;;;;49.18;29.52;;;;;;;-1.81;74.93;99661.61;1676692;85;21595;-63
2021/01/21 07:12:13;;;;;;;47.65;28.00;;;;;;;-1.70;74.64;99665.53;1677672;85;22190;-63
2021/01/21 07:14:41;;;;;;;45.58;26.77;;;;;;;-1.65;74.33;99665.17;1648854;85;21183;-61
2021/01/21 07:17:10;;;;;;;51.98;28.73;;;;;;;-1.61;74.29;99669.05;1677203;85;21230;-61
2021/01/21 07:19:42;;;;;;;47.83;27.25;;;;;;;-1.59;74.11;99667.34;1605897;85;21091;-60
2021/01/21 07:22:20;;;;;;;45.65;27.90;;;;;;;-1.61;73.87;99669.05;1677194;85;21178;-60
2021/01/21 07:24:56;;;;;;;43.17;26.62;;;;;;;-1.62;73.91;99661.38;1677243;85;21407;-63
2021/01/21 07:27:29;;;;;;;39.15;22.73;;;;;;;-1.60;73.96;99671.18;1677162;85;21186;-64
2021/01/21 07:30:21;;;;;;;47.17;25.32;;;;;;;-1.53;73.97;99663.59;1674428;84;21259;-59
2021/01/21 07:32:49;;;;;;;31.07;19.25;;;;;;;-1.42;73.75;99661.16;1677317;85;21070;-60
2021/01/21 07:35:35;;;;;;;38.15;21.05;;;;;;;-1.45;73.45;99666.23;1677230;85;21527;-64
2021/01/21 07:38:04;;;;;;;39.58;23.42;;;;;;;-1.49;73.52;99669.16;1677231;84;22122;-60
2021/01/21 07:40:49;;;;;;;35.17;21.55;;;;;;;-1.50;73.76;99664.05;1677064;83;21170;-62
2021/01/21 07:43:17;;;;;;;38.08;23.15;;;;;;;-1.47;73.70;99663.66;1677159;85;21114;-61
2021/01/21 07:45:47;;;;;;;41.33;23.05;;;;;;;-1.43;73.74;99673.05;1674306;85;21122;-61
2021/01/21 07:48:27;;;;;;;34.78;20.82;;;;;;;-1.40;73.65;99673.52;1677211;85;21565;-60
2021/01/21 07:50:56;;;;;;;34.40;21.70;;;;;;;-1.41;73.77;99671.80;1677176;84;21516;-60
2021/01/21 07:53:26;;;;;;;35.65;20.12;;;;;;;-1.37;73.91;99678.62;1626969;85;21174;-63
2021/01/21 07:55:55;;;;;;;34.08;21.73;;;;;;;-1.35;73.65;99680.77;1677169;85;21167;-62
2021/01/21 07:58:34;;;;;;;37.20;22.00;;;;;;;-1.42;73.62;99674.77;1677187;85;21587;-62
2021/01/21 08:01:08;;;;;;;36.88;22.52;;;;;;;-1.49;73.90;99675.54;1677189;85;21646;-62
2021/01/21 08:03:41;;;;;;;37.67;22.25;;;;;;;-1.47;74.17;99675.55;1651077;85;22136;-64
2021/01/21 08:06:22;;;;;;;35.30;20.72;;;;;;;-1.46;74.27;99681.95;1677418;85;21026;-65
2021/01/21 08:08:51;;;;;;;36.45;23.00;;;;;;;-1.43;74.05;99683.68;1676985;84;21511;-65
2021/01/21 08:11:21;;;;;;;39.03;22.70;;;;;;;-1.49;74.16;99679.36;1677165;85;21123;-64
2021/01/21 08:13:58;;;;;;;38.05;22.58;;;;;;;-1.47;74.48;99684.48;1677207;85;21087;-65
2021/01/21 08:16:28;;;;;;;37.78;22.65;;;;;;;-1.37;74.37;99681.59;1677185;85;21400;-65
2021/01/21 08:19:00;;;;;;;39.13;21.97;;;;;;;-1.34;74.33;99684.17;1677119;83;21090;-65
2021/01/21 08:21:29;;;;;;;36.38;22.67;;;;;;;-1.27;74.39;99683.41;1677261;85;21534;-65
2021/01/21 08:23:59;;;;;;;38.88;22.95;;;;;;;-1.18;74.17;99675.39;1648250;85;21160;-68
2021/01/21 08:26:32;;;;;;;37.93;21.07;;;;;;;-1.15;74.02;99676.70;1677415;85;21078;-66
2021/01/21 08:29:01;;;;;;;32.67;22.07;;;;;;;-1.10;74.01;99676.75;1677332;85;21170;-65
2021/01/21 08:31:46;;;;;;;41.75;23.12;;;;;;;-1.03;73.98;99681.49;1677123;85;21094;-68
2021/01/21 08:34:22;;;;;;;38.65;22.52;;;;;;;-0.95;73.89;99679.42;1677241;85;21087;-66
2021/01/21 08:36:50;;;;;;;34.40;20.60;;;;;;;-0.81;73.87;99681.68;1649918;85;21571;-66
2021/01/21 08:39:17;;;;;;;31.10;19.60;;;;;;;-0.62;73.54;99683.94;1677245;85;21540;-65
2021/01/21 08:41:45;;;;;;;31.12;18.65;;;;;;;-0.52;73.05;99675.89;1677168;85;21399;-64
2021/01/21 08:44:17;;;;;;;38.20;22.32;;;;;;;-0.51;72.84;99682.72;1605021;85;21158;-68
2021/01/21 08:46:59;;;;;;;38.48;21.57;;;;;;;-0.49;73.00;99674.64;1677142;85;21099;-64
2021/01/21 08:49:29;;;;;;;38.45;22.27;;;;;;;-0.39;72.79;99677.25;1677144;84;21092;-65
2021/01/21 08:52:10;;;;;;;34.10;20.82;;;;;;;-0.31;72.50;99679.00;1677298;84;21110;-66
2021/01/21 08:54:52;;;;;;;37.15;22.55;;;;;;;-0.27;72.15;99674.34;1677117;85;21381;-66
2021/01/21 08:57:23;;;;;;;46.47;26.00;;;;;;;-0.24;72.26;99675.22;1677402;85;21620;-66
2021/01/21 08:59:51;;;;;;;34.70;21.12;;;;;;;-0.15;72.17;99668.00;1677141;85;21229;-68
2021/01/21 09:02:41;;;;;;;32.23;21.07;;;;;;;-0.10;72.00;99665.05;1677132;85;21084;-67
2021/01/21 09:05:12;;;;;;;33.42;20.95;;;;;;;-0.03;71.82;99662.54;1677212;85;21246;-65
2021/01/21 09:07:40;;;;;;;32.23;20.48;;;;;;;0.01;71.55;99662.10;1677059;83;22128;-66
2021/01/21 09:10:15;;;;;;;34.05;19.85;;;;;;;-0.03;71.51;99662.54;1677110;85;21512;-67
2021/01/21 09:12:42;;;;;;;30.75;19.73;;;;;;;0.01;71.63;99655.70;1677136;85;21170;-66
2021/01/21 09:15:13;;;;;;;33.25;21.55;;;;;;;0.04;71.38;99655.72;1677101;85;21185;-66
2021/01/21 09:17:41;;;;;;;33.48;19.73;;;;;;;0.00;71.24;99655.31;1677143;85;21238;-66
2021/01/21 09:20:24;;;;;;;32.58;20.62;;;;;;;-0.09;71.26;99657.81;1677043;85;21174;-66
2021/01/21 09:22:54;;;;;;;35.45;21.82;;;;;;;-0.15;71.39;99657.78;1674473;85;21138;-68
2021/01/21 09:25:29;;;;;;;33.98;21.37;;;;;;;-0.24;71.66;99659.88;1673528;85;21901;-67
2021/01/21 09:27:57;;;;;;;37.45;21.85;;;;;;;-0.32;72.11;99645.34;1675087;85;21075;-66
2021/01/21 09:30:26;;;;;;;27.62;18.40;;;;;;;-0.33;72.57;99640.66;1677153;85;21071;-66
2021/01/21 09:32:56;;;;;;;29.00;19.15;;;;;;;-0.28;72.47;99645.80;1677222;85;22344;-67
2021/01/21 09:35:24;;;;;;;28.75;19.00;;;;;;;-0.26;72.44;99644.11;1646204;85;21226;-67
2021/01/21 09:37:54;;;;;;;33.70;20.43;;;;;;;-0.28;72.48;99635.16;1673620;84;21240;-68
2021/01/21 09:40:24;;;;;;;33.15;20.40;;;;;;;-0.28;72.50;99641.97;1675986;84;21218;-66
2021/01/21 09:42:53;;;;;;;28.05;19.12;;;;;;;-0.29;72.60;99628.75;1677131;85;21072;-66
2021/01/21 09:45:22;;;;;;;34.55;21.20;;;;;;;-0.24;72.58;99629.21;1670983;84;21357;-66
2021/01/21 09:47:50;;;;;;;29.95;19.35;;;;;;;-0.16;72.78;99618.58;1677061;85;21190;-66
2021/01/21 09:50:20;;;;;;;33.73;19.70;;;;;;;-0.11;72.50;99619.87;1677095;85;21102;-67
2021/01/21 09:52:48;;;;;;;34.67;20.02;;;;;;;-0.15;72.36;99623.27;1677050;85;21102;-67
2021/01/21 09:55:17;;;;;;;31.35;20.75;;;;;;;-0.25;72.64;99622.39;1677133;85;21519;-66
2021/01/21 09:57:45;;;;;;;33.63;19.73;;;;;;;-0.20;73.13;99621.14;1677122;85;21224;-67
2021/01/21 10:00:14;;;;;;;35.20;21.90;;;;;;;-0.12;72.90;99614.34;1673401;85;21221;-70
2021/01/21 10:02:42;;;;;;;34.63;21.33;;;;;;;-0.13;72.74;99608.79;1672475;85;21205;-67
2021/01/21 10:05:13;;;;;;;33.95;19.95;;;;;;;-0.17;72.99;99613.03;1675269;85;21202;-66
2021/01/21 10:07:41;;;;;;;30.80;19.57;;;;;;;-0.16;72.99;99612.19;1675569;85;21265;-64
2021/01/21 10:10:10;;;;;;;25.27;16.75;;;;;;;-0.13;73.20;99610.07;1675691;85;23555;-65
2021/01/21 10:12:39;;;;;;;30.88;19.80;;;;;;;-0.11;73.08;99618.18;1675662;85;21122;-66
2021/01/21 10:15:08;;;;;;;32.65;21.17;;;;;;;-0.13;73.16;99622.42;1675658;85;21515;-66
2021/01/21 10:17:36;;;;;;;26.17;17.40;;;;;;;-0.12;73.45;99622.86;1675591;85;21110;-66
2021/01/21 10:20:07;;;;;;;29.35;19.60;;;;;;;-0.08;73.41;99613.08;1675628;85;21115;-65
2021/01/21 10:22:35;;;;;;;29.02;18.67;;;;;;;-0.06;73.39;99607.55;1674035;83;21402;-64
2021/01/21 10:25:04;;;;;;;29.12;17.90;;;;;;;-0.04;73.45;99613.95;1676080;83;21200;-65
2021/01/21 10:27:32;;;;;;;31.27;19.12;;;;;;;-0.02;73.40;99605.44;1677009;83;21582;-67
2021/01/21 10:29:59;;;;;;;34.05;20.48;;;;;;;0.02;73.27;99600.31;1664319;83;22413;-65
2021/01/21 10:32:29;;;;;;;33.95;20.40;;;;;;;0.07;73.26;99605.02;1646465;87;21646;-65
2021/01/21 10:34:57;;;;;;;35.85;21.45;;;;;;;0.12;73.22;99598.22;1648937;86;21485;-66
2021/01/21 10:37:26;;;;;;;38.33;23.75;;;;;;;0.15;73.57;99596.53;1649593;87;21111;-66
2021/01/21 10:39:55;;;;;;;34.45;21.48;;;;;;;0.29;73.44;99583.33;1649600;87;21102;-67
2021/01/21 10:42:23;;;;;;;34.83;20.15;;;;;;;0.37;73.15;99587.20;1649593;87;21582;-66
2021/01/21 10:44:51;;;;;;;29.57;18.55;;;;;;;0.46;72.76;99582.50;1712047;83;21300;-66
2021/01/21 10:47:19;;;;;;;28.05;18.17;;;;;;;0.50;72.42;99581.23;1685797;85;21548;-69
2021/01/21 10:49:48;;;;;;;30.57;20.32;;;;;;;0.42;72.26;99584.62;1686481;85;22007;-67
2021/01/21 10:52:16;;;;;;;36.45;21.05;;;;;;;0.40;72.63;99583.33;1680944;84;21118;-67
2021/01/21 10:54:45;;;;;;;34.67;21.07;;;;;;;0.45;72.57;99579.08;1680767;85;21611;-67
2021/01/21 10:57:13;;;;;;;29.77;19.42;;;;;;;0.47;72.65;99574.83;1654719;85;21146;-67
2021/01/21 10:59:41;;;;;;;29.20;19.30;;;;;;;0.56;72.55;99563.33;1681578;85;21384;-67
2021/01/21 11:02:10;;;;;;;32.55;18.73;;;;;;;0.61;72.32;99558.18;1657829;85;22257;-66
2021/01/21 11:04:38;;;;;;;31.68;20.25;;;;;;;0.59;71.99;99562.48;1624629;85;21140;-66
2021/01/21 11:07:07;;;;;;;28.60;18.62;;;;;;;0.53;72.22;99551.80;1624515;88;22075;-66
2021/01/21 11:12:15;;;;;;;32.35;20.55;;;;;;;0.47;72.21;99543.26;1889852;76;22728;-67
2021/01/21 11:14:43;;;;;;;32.45;20.25;;;;;;;0.45;72.69;99543.69;1860813;77;20921;-67
2021/01/21 11:17:11;;;;;;;34.25;21.60;;;;;;;0.55;72.54;99540.29;1853112;77;21364;-68
2021/01/21 11:19:39;;;;;;;26.65;18.82;;;;;;;0.61;72.47;99535.14;1827276;78;21992;-66
2021/01/21 11:22:08;;;;;;;37.28;20.72;;;;;;;0.66;72.33;99535.58;1829207;78;20957;-66
2021/01/21 11:24:36;;;;;;;30.30;20.15;;;;;;;0.72;72.52;99527.05;1830533;77;21139;-67
2021/01/21 11:27:04;;;;;;;29.23;20.10;;;;;;;0.87;72.35;99521.05;1830486;78;21068;-67
2021/01/21 11:29:32;;;;;;;33.63;19.57;;;;;;;0.90;71.97;99517.20;1830554;77;21548;-68
2021/01/21 11:32:00;;;;;;;32.30;19.77;;;;;;;0.92;71.99;99521.47;1830485;78;21508;-66
2021/01/21 11:34:29;;;;;;;32.67;19.32;;;;;;;0.95;71.91;99507.39;1829882;78;21584;-67
2021/01/21 11:36:57;;;;;;;29.52;19.20;;;;;;;0.91;71.75;99512.52;1851575;77;21592;-66
2021/01/21 11:39:25;;;;;;;30.10;20.12;;;;;;;0.86;71.91;99519.34;1858177;77;21618;-66
2021/01/21 11:41:53;;;;;;;29.48;19.30;;;;;;;0.83;72.01;99508.67;1859075;77;21439;-67